Arletta, Washington
Current Conditions -  °F | °C
As of 5:53 PM on Friday 24 Oct 2014 (Local Time) from KTIW Reporting Station
Overcast Overcast  
Wind Chill: 54°   Ceiling: 9500
Heat Index: 54°   Visibility: 10mi
Dew Point: 46°   Wind: 15mph
Humidity: 75%   Direction: 10°N
Pressure: 29.86"   Gusts: 25mph
Location:  47.2986°N, 122.616°W
Report Text: KTIW 250053Z 01013G22KT 10SM SCT080 OVC095 12/08 A2986 RMK AO2 SLP112 T01220078
Loading
Personal Weather Stations






























Interactive Weather Map
Tropical Storm Tracking
New forecast layout! Learn more

10-Day Weather Forecast

Advertisements
Track Severe Weather on mobile